sensor_id;sensor_type;location;lat;lon;timestamp;pressure;altitude;pressure_sealevel;temperature;humidity
64933;BME280;51446;53.850;10.662;2023-08-08T00:00:15;100554.13;;;12.65;100.00
64933;BME280;51446;53.850;10.662;2023-08-08T00:02:41;100545.31;;;12.67;100.00
64933;BME280;51446;53.850;10.662;2023-08-08T00:05:06;100543.53;;;12.53;100.00
64933;BME280;51446;53.850;10.662;2023-08-08T00:07:32;100553.19;;;12.52;100.00
64933;BME280;51446;53.850;10.662;2023-08-08T00:09:57;100552.34;;;12.58;100.00
64933;BME280;51446;53.850;10.662;2023-08-08T00:12:23;100568.03;;;12.42;100.00
64933;BME280;51446;53.850;10.662;2023-08-08T00:14:48;100568.06;;;12.52;100.00
64933;BME280;51446;53.850;10.662;2023-08-08T00:17:13;100554.03;;;12.46;100.00
64933;BME280;51446;53.850;10.662;2023-08-08T00:19:39;100563.66;;;12.43;100.00
64933;BME280;51446;53.850;10.662;2023-08-08T00:22:05;100569.75;;;12.34;100.00
64933;BME280;51446;53.850;10.662;2023-08-08T00:24:30;100569.72;;;12.31;100.00
64933;BME280;51446;53.850;10.662;2023-08-08T00:26:56;100566.25;;;12.34;100.00
64933;BME280;51446;53.850;10.662;2023-08-08T00:29:21;100555.66;;;12.23;100.00
64933;BME280;51446;53.850;10.662;2023-08-08T00:31:46;100553.94;;;12.25;100.00
64933;BME280;51446;53.850;10.662;2023-08-08T00:34:12;100556.53;;;12.19;100.00
64933;BME280;51446;53.850;10.662;2023-08-08T00:36:37;100556.53;;;12.20;100.00
64933;BME280;51446;53.850;10.662;2023-08-08T00:39:02;100567.09;;;12.26;100.00
64933;BME280;51446;53.850;10.662;2023-08-08T00:41:27;100555.63;;;12.20;100.00
64933;BME280;51446;53.850;10.662;2023-08-08T00:43:53;100572.31;;;12.19;100.00
64933;BME280;51446;53.850;10.662;2023-08-08T00:46:23;100550.34;;;12.13;100.00
64933;BME280;51446;53.850;10.662;2023-08-08T00:48:51;100574.03;;;12.15;100.00
64933;BME280;51446;53.850;10.662;2023-08-08T00:51:18;100581.09;;;12.25;100.00
64933;BME280;51446;53.850;10.662;2023-08-08T00:53:44;100570.53;;;12.19;100.00
64933;BME280;51446;53.850;10.662;2023-08-08T00:56:12;100566.97;;;12.08;100.00
64933;BME280;51446;53.850;10.662;2023-08-08T00:58:38;100552.97;;;12.07;100.00
64933;BME280;51446;53.850;10.662;2023-08-08T01:01:03;100570.53;;;12.18;100.00
64933;BME280;51446;53.850;10.662;2023-08-08T01:03:28;100565.22;;;12.08;100.00
64933;BME280;51446;53.850;10.662;2023-08-08T01:06:06;100555.50;;;11.98;100.00
64933;BME280;51446;53.850;10.662;2023-08-08T01:08:42;100539.69;;;11.92;100.00
64933;BME280;51446;53.850;10.662;2023-08-08T01:11:11;100566.03;;;12.03;100.00
64933;BME280;51446;53.850;10.662;2023-08-08T01:13:37;100554.66;;;11.97;100.00
64933;BME280;51446;53.850;10.662;2023-08-08T01:16:03;100550.28;;;12.03;100.00
64933;BME280;51446;53.850;10.662;2023-08-08T01:18:31;100554.66;;;11.99;100.00
64933;BME280;51446;53.850;10.662;2023-08-08T01:20:57;100558.16;;;12.03;100.00
64933;BME280;51446;53.850;10.662;2023-08-08T01:23:30;100551.09;;;11.94;100.00
64933;BME280;51446;53.850;10.662;2023-08-08T01:25:57;100546.75;;;11.96;100.00
64933;BME280;51446;53.850;10.662;2023-08-08T01:28:23;100552.91;;;12.01;100.00
64933;BME280;51446;53.850;10.662;2023-08-08T01:30:49;100554.59;;;11.93;100.00
64933;BME280;51446;53.850;10.662;2023-08-08T01:33:15;100536.25;;;11.97;100.00
64933;BME280;51446;53.850;10.662;2023-08-08T01:35:45;100550.31;;;12.06;100.00
64933;BME280;51446;53.850;10.662;2023-08-08T01:38:20;100546.78;;;12.04;100.00
64933;BME280;51446;53.850;10.662;2023-08-08T01:40:48;100545.94;;;12.08;100.00
64933;BME280;51446;53.850;10.662;2023-08-08T01:43:15;100542.38;;;12.00;100.00
64933;BME280;51446;53.850;10.662;2023-08-08T01:45:41;100552.00;;;11.97;100.00
64933;BME280;51446;53.850;10.662;2023-08-08T01:48:09;100539.75;;;11.98;100.00
64933;BME280;51446;53.850;10.662;2023-08-08T01:50:34;100541.38;;;11.87;100.00
64933;BME280;51446;53.850;10.662;2023-08-08T01:53:00;100548.47;;;11.95;100.00
64933;BME280;51446;53.850;10.662;2023-08-08T01:55:25;100546.69;;;11.90;100.00
64933;BME280;51446;53.850;10.662;2023-08-08T01:57:50;100538.88;;;12.01;100.00
64933;BME280;51446;53.850;10.662;2023-08-08T02:00:16;100548.47;;;11.94;100.00
64933;BME280;51446;53.850;10.662;2023-08-08T02:02:41;100541.44;;;11.91;100.00
64933;BME280;51446;53.850;10.662;2023-08-08T02:05:06;100531.78;;;11.90;100.00
64933;BME280;51446;53.850;10.662;2023-08-08T02:07:32;100524.72;;;11.82;100.00
64933;BME280;51446;53.850;10.662;2023-08-08T02:09:57;100530.00;;;11.88;100.00
64933;BME280;51446;53.850;10.662;2023-08-08T02:12:22;100525.63;;;11.87;100.00
64933;BME280;51446;53.850;10.662;2023-08-08T02:14:48;100519.63;;;11.97;100.00
64933;BME280;51446;53.850;10.662;2023-08-08T02:17:13;100517.88;;;12.01;100.00
64933;BME280;51446;53.850;10.662;2023-08-08T02:19:38;100524.78;;;11.92;100.00
64933;BME280;51446;53.850;10.662;2023-08-08T02:22:04;100519.56;;;11.95;100.00
64933;BME280;51446;53.850;10.662;2023-08-08T02:24:29;100526.59;;;11.95;100.00
64933;BME280;51446;53.850;10.662;2023-08-08T02:26:54;100523.06;;;11.93;100.00
64933;BME280;51446;53.850;10.662;2023-08-08T02:29:20;100520.47;;;11.96;100.00
64933;BME280;51446;53.850;10.662;2023-08-08T02:31:45;100528.34;;;11.94;100.00
64933;BME280;51446;53.850;10.662;2023-08-08T02:34:11;100521.41;;;12.04;100.00
64933;BME280;51446;53.850;10.662;2023-08-08T02:36:37;100518.75;;;12.03;100.00
64933;BME280;51446;53.850;10.662;2023-08-08T02:39:02;100524.91;;;12.05;100.00
64933;BME280;51446;53.850;10.662;2023-08-08T02:41:28;100516.06;;;11.95;100.00
64933;BME280;51446;53.850;10.662;2023-08-08T02:43:53;100523.97;;;11.95;100.00
64933;BME280;51446;53.850;10.662;2023-08-08T02:46:19;100527.53;;;12.03;100.00
64933;BME280;51446;53.850;10.662;2023-08-08T02:48:44;100503.84;;;12.00;100.00
64933;BME280;51446;53.850;10.662;2023-08-08T02:51:09;100509.97;;;12.02;100.00
64933;BME280;51446;53.850;10.662;2023-08-08T02:53:36;100517.00;;;12.02;100.00
64933;BME280;51446;53.850;10.662;2023-08-08T02:56:03;100509.97;;;12.01;100.00
64933;BME280;51446;53.850;10.662;2023-08-08T02:58:28;100521.34;;;11.96;100.00
64933;BME280;51446;53.850;10.662;2023-08-08T03:00:53;100520.47;;;11.97;100.00
64933;BME280;51446;53.850;10.662;2023-08-08T03:03:19;100509.97;;;11.97;100.00
64933;BME280;51446;53.850;10.662;2023-08-08T03:05:45;100510.81;;;11.96;100.00
64933;BME280;51446;53.850;10.662;2023-08-08T03:08:10;100507.28;;;11.91;100.00
64933;BME280;51446;53.850;10.662;2023-08-08T03:10:36;100514.31;;;11.95;100.00
64933;BME280;51446;53.850;10.662;2023-08-08T03:13:02;100509.13;;;12.06;100.00
64933;BME280;51446;53.850;10.662;2023-08-08T03:15:27;100509.97;;;11.97;100.00
64933;BME280;51446;53.850;10.662;2023-08-08T03:17:52;100495.06;;;12.00;100.00
64933;BME280;51446;53.850;10.662;2023-08-08T03:20:18;100500.41;;;12.09;100.00
64933;BME280;51446;53.850;10.662;2023-08-08T03:22:43;100494.22;;;12.04;100.00
64933;BME280;51446;53.850;10.662;2023-08-08T03:25:08;100496.84;;;12.05;100.00
64933;BME280;51446;53.850;10.662;2023-08-08T03:27:35;100497.72;;;12.01;100.00
64933;BME280;51446;53.850;10.662;2023-08-08T03:30:00;100497.72;;;12.03;100.00
64933;BME280;51446;53.850;10.662;2023-08-08T03:32:25;100503.03;;;12.10;100.00
64933;BME280;51446;53.850;10.662;2023-08-08T03:34:51;100499.50;;;12.08;100.00
64933;BME280;51446;53.850;10.662;2023-08-08T03:37:16;100503.88;;;12.03;100.00
64933;BME280;51446;53.850;10.662;2023-08-08T03:39:42;100506.50;;;12.03;100.00
64933;BME280;51446;53.850;10.662;2023-08-08T03:42:08;100502.88;;;11.92;100.00
64933;BME280;51446;53.850;10.662;2023-08-08T03:44:33;100503.88;;;12.03;100.00
64933;BME280;51446;53.850;10.662;2023-08-08T03:46:58;100494.22;;;12.05;100.00
64933;BME280;51446;53.850;10.662;2023-08-08T03:49:24;100489.00;;;12.10;100.00
64933;BME280;51446;53.850;10.662;2023-08-08T03:51:49;100497.63;;;11.90;100.00
64933;BME280;51446;53.850;10.662;2023-08-08T03:54:14;100493.34;;;12.02;100.00
64933;BME280;51446;53.850;10.662;2023-08-08T03:56:40;100496.84;;;12.04;100.00
64933;BME280;51446;53.850;10.662;2023-08-08T03:59:07;100494.25;;;12.08;100.00
64933;BME280;51446;53.850;10.662;2023-08-08T04:01:33;100503.03;;;12.13;100.00
64933;BME280;51446;53.850;10.662;2023-08-08T04:03:58;100503.06;;;12.21;100.00
64933;BME280;51446;53.850;10.662;2023-08-08T04:06:23;100499.59;;;12.24;100.00
64933;BME280;51446;53.850;10.662;2023-08-08T04:08:49;100496.03;;;12.17;100.00
64933;BME280;51446;53.850;10.662;2023-08-08T04:11:14;100496.91;;;12.14;100.00
64933;BME280;51446;53.850;10.662;2023-08-08T04:13:39;100503.91;;;12.17;100.00
64933;BME280;51446;53.850;10.662;2023-08-08T04:16:05;100501.28;;;12.11;100.00
64933;BME280;51446;53.850;10.662;2023-08-08T04:18:30;100502.13;;;12.08;100.00
64933;BME280;51446;53.850;10.662;2023-08-08T04:20:56;100509.22;;;12.19;100.00
64933;BME280;51446;53.850;10.662;2023-08-08T04:23:21;100515.31;;;12.13;100.00
64933;BME280;51446;53.850;10.662;2023-08-08T04:25:50;100499.53;;;12.13;100.00
64933;BME280;51446;53.850;10.662;2023-08-08T04:28:15;100517.94;;;12.13;100.00
64933;BME280;51446;53.850;10.662;2023-08-08T04:30:41;100522.34;;;12.19;100.00
64933;BME280;51446;53.850;10.662;2023-08-08T04:33:06;100515.31;;;12.13;100.00
64933;BME280;51446;53.850;10.662;2023-08-08T04:35:31;100513.59;;;12.21;100.00
64933;BME280;51446;53.850;10.662;2023-08-08T04:37:57;100524.94;;;12.11;100.00
64933;BME280;51446;53.850;10.662;2023-08-08T04:40:22;100521.53;;;12.30;100.00
64933;BME280;51446;53.850;10.662;2023-08-08T04:42:47;100517.16;;;12.36;100.00
64933;BME280;51446;53.850;10.662;2023-08-08T04:45:13;100511.84;;;12.23;100.00
64933;BME280;51446;53.850;10.662;2023-08-08T04:47:39;100510.16;;;12.35;100.00
64933;BME280;51446;53.850;10.662;2023-08-08T04:50:04;100511.84;;;12.23;100.00
64933;BME280;51446;53.850;10.662;2023-08-08T04:52:30;100523.25;;;12.28;100.00
64933;BME280;51446;53.850;10.662;2023-08-08T04:54:55;100519.69;;;12.17;100.00
64933;BME280;51446;53.850;10.662;2023-08-08T04:57:20;100515.31;;;12.11;100.00
64933;BME280;51446;53.850;10.662;2023-08-08T04:59:46;100504.81;;;12.21;100.00
64933;BME280;51446;53.850;10.662;2023-08-08T05:02:11;100507.53;;;12.41;100.00
64933;BME280;51446;53.850;10.662;2023-08-08T05:04:36;100518.16;;;12.64;100.00
64933;BME280;51446;53.850;10.662;2023-08-08T05:07:02;100510.28;;;12.73;100.00
64933;BME280;51446;53.850;10.662;2023-08-08T05:09:29;100490.97;;;12.66;100.00
64933;BME280;51446;53.850;10.662;2023-08-08T05:11:54;100496.25;;;12.80;100.00
64933;BME280;51446;53.850;10.662;2023-08-08T05:14:19;100504.19;;;12.87;100.00
64933;BME280;51446;53.850;10.662;2023-08-08T05:16:45;100499.75;;;12.75;100.00
64933;BME280;51446;53.850;10.662;2023-08-08T05:19:11;100502.41;;;12.76;100.00
64933;BME280;51446;53.850;10.662;2023-08-08T05:21:37;100496.25;;;12.66;100.00
64933;BME280;51446;53.850;10.662;2023-08-08T05:24:02;100515.56;;;12.76;100.00
64933;BME280;51446;53.850;10.662;2023-08-08T05:26:28;100505.91;;;12.77;100.00
64933;BME280;51446;53.850;10.662;2023-08-08T05:28:53;100513.81;;;12.81;100.00
64933;BME280;51446;53.850;10.662;2023-08-08T05:31:18;100511.19;;;12.81;100.00
64933;BME280;51446;53.850;10.662;2023-08-08T05:33:44;100520.78;;;12.67;100.00
64933;BME280;51446;53.850;10.662;2023-08-08T05:36:09;100502.38;;;12.65;100.00
64933;BME280;51446;53.850;10.662;2023-08-08T05:38:35;100504.13;;;12.73;100.00
64933;BME280;51446;53.850;10.662;2023-08-08T05:41:00;100500.63;;;12.74;100.00
64933;BME280;51446;53.850;10.662;2023-08-08T05:43:25;100502.38;;;12.65;100.00
64933;BME280;51446;53.850;10.662;2023-08-08T05:45:53;100508.50;;;12.66;100.00
64933;BME280;51446;53.850;10.662;2023-08-08T05:48:19;100501.50;;;12.65;100.00
64933;BME280;51446;53.850;10.662;2023-08-08T05:50:44;100504.16;;;12.80;100.00
64933;BME280;51446;53.850;10.662;2023-08-08T05:53:09;100499.78;;;12.92;100.00
64933;BME280;51446;53.850;10.662;2023-08-08T05:55:34;100496.31;;;13.08;100.00
64933;BME280;51446;53.850;10.662;2023-08-08T05:58:00;100505.97;;;13.25;100.00
64933;BME280;51446;53.850;10.662;2023-08-08T06:00:25;100499.84;;;13.18;100.00
64933;BME280;51446;53.850;10.662;2023-08-08T06:02:50;100487.53;;;13.08;100.00
64933;BME280;51446;53.850;10.662;2023-08-08T06:05:21;100480.50;;;13.14;100.00
64933;BME280;51446;53.850;10.662;2023-08-08T06:07:47;100480.53;;;13.11;100.00
64933;BME280;51446;53.850;10.662;2023-08-08T06:10:12;100489.28;;;13.02;100.00
64933;BME280;51446;53.850;10.662;2023-08-08T06:12:37;100491.06;;;13.28;100.00
64933;BME280;51446;53.850;10.662;2023-08-08T06:15:03;100484.03;;;13.18;100.00
64933;BME280;51446;53.850;10.662;2023-08-08T06:17:29;100479.66;;;13.43;100.00
64933;BME280;51446;53.850;10.662;2023-08-08T06:19:54;100486.66;;;13.32;100.00
64933;BME280;51446;53.850;10.662;2023-08-08T06:22:21;100477.03;;;13.40;100.00
64933;BME280;51446;53.850;10.662;2023-08-08T06:24:46;100477.88;;;13.22;100.00
64933;BME280;51446;53.850;10.662;2023-08-08T06:27:12;100475.28;;;13.41;100.00
64933;BME280;51446;53.850;10.662;2023-08-08T06:29:38;100485.78;;;13.61;100.00
64933;BME280;51446;53.850;10.662;2023-08-08T06:32:04;100469.09;;;13.69;100.00
64933;BME280;51446;53.850;10.662;2023-08-08T06:34:29;100469.97;;;13.78;100.00
64933;BME280;51446;53.850;10.662;2023-08-08T06:36:54;100470.88;;;13.52;100.00
64933;BME280;51446;53.850;10.662;2023-08-08T06:39:19;100476.09;;;13.81;100.00
64933;BME280;51446;53.850;10.662;2023-08-08T06:41:46;100465.38;;;14.35;100.00
64933;BME280;51446;53.850;10.662;2023-08-08T06:44:12;100467.47;;;15.23;100.00
64933;BME280;51446;53.850;10.662;2023-08-08T06:46:37;100467.06;;;15.67;100.00
64933;BME280;51446;53.850;10.662;2023-08-08T06:49:03;100480.13;;;14.73;100.00
64933;BME280;51446;53.850;10.662;2023-08-08T06:51:29;100464.38;;;14.60;100.00
64933;BME280;51446;53.850;10.662;2023-08-08T06:53:55;100467.91;;;14.54;100.00
64933;BME280;51446;53.850;10.662;2023-08-08T06:56:20;100467.94;;;14.48;100.00
64933;BME280;51446;53.850;10.662;2023-08-08T06:58:45;100466.19;;;14.48;100.00
64933;BME280;51446;53.850;10.662;2023-08-08T07:01:10;100461.19;;;15.34;100.00
64933;BME280;51446;53.850;10.662;2023-08-08T07:03:36;100473.63;;;15.25;100.00
64933;BME280;51446;53.850;10.662;2023-08-08T07:06:02;100477.03;;;15.35;100.00
64933;BME280;51446;53.850;10.662;2023-08-08T07:08:27;100463.34;;;14.85;100.00
64933;BME280;51446;53.850;10.662;2023-08-08T07:10:54;100473.19;;;14.52;100.00
64933;BME280;51446;53.850;10.662;2023-08-08T07:13:19;100473.97;;;14.76;100.00
64933;BME280;51446;53.850;10.662;2023-08-08T07:15:45;100471.28;;;14.81;100.00
64933;BME280;51446;53.850;10.662;2023-08-08T07:18:10;100458.13;;;14.74;100.00
64933;BME280;51446;53.850;10.662;2023-08-08T07:20:35;100464.38;;;14.63;100.00
64933;BME280;51446;53.850;10.662;2023-08-08T07:23:01;100455.53;;;14.68;100.00
64933;BME280;51446;53.850;10.662;2023-08-08T07:25:26;100454.75;;;14.51;100.00
64933;BME280;51446;53.850;10.662;2023-08-08T07:27:52;100463.53;;;14.48;100.00
64933;BME280;51446;53.850;10.662;2023-08-08T07:30:17;100461.72;;;14.66;100.00
64933;BME280;51446;53.850;10.662;2023-08-08T07:32:42;100451.97;;;14.79;100.00
64933;BME280;51446;53.850;10.662;2023-08-08T07:35:08;100451.13;;;14.70;100.00
64933;BME280;51446;53.850;10.662;2023-08-08T07:37:34;100450.72;;;15.26;100.00
64933;BME280;51446;53.850;10.662;2023-08-08T07:40:01;100437.78;;;15.88;100.00
64933;BME280;51446;53.850;10.662;2023-08-08T07:42:26;100430.88;;;16.46;100.00
64933;BME280;51446;53.850;10.662;2023-08-08T07:44:52;100434.50;;;17.53;100.00
64933;BME280;51446;53.850;10.662;2023-08-08T07:47:17;100427.31;;;16.47;100.00
64933;BME280;51446;53.850;10.662;2023-08-08T07:49:43;100435.66;;;16.80;100.00
64933;BME280;51446;53.850;10.662;2023-08-08T07:52:08;100433.34;;;18.13;100.00
64933;BME280;51446;53.850;10.662;2023-08-08T07:54:34;100431.78;;;18.44;100.00
64933;BME280;51446;53.850;10.662;2023-08-08T07:56:59;100437.16;;;17.53;100.00
64933;BME280;51446;53.850;10.662;2023-08-08T07:59:25;100426.25;;;18.94;100.00
64933;BME280;51446;53.850;10.662;2023-08-08T08:01:50;100415.78;;;18.48;100.00
64933;BME280;51446;53.850;10.662;2023-08-08T08:04:15;100428.19;;;18.87;100.00
64933;BME280;51446;53.850;10.662;2023-08-08T08:06:41;100417.81;;;17.93;100.00
64933;BME280;51446;53.850;10.662;2023-08-08T08:09:06;100428.13;;;18.09;100.00
64933;BME280;51446;53.850;10.662;2023-08-08T08:11:32;100422.75;;;18.54;100.00
64933;BME280;51446;53.850;10.662;2023-08-08T08:13:57;100421.06;;;18.08;100.00
64933;BME280;51446;53.850;10.662;2023-08-08T08:16:22;100414.78;;;17.18;100.00
64933;BME280;51446;53.850;10.662;2023-08-08T08:18:47;100409.13;;;16.83;100.00
64933;BME280;51446;53.850;10.662;2023-08-08T08:21:13;100411.88;;;16.77;100.00
64933;BME280;51446;53.850;10.662;2023-08-08T08:23:39;100416.66;;;16.54;100.00
64933;BME280;51446;53.850;10.662;2023-08-08T08:26:04;100409.59;;;16.54;100.00
64933;BME280;51446;53.850;10.662;2023-08-08T08:28:30;100405.44;;;16.95;100.00
64933;BME280;51446;53.850;10.662;2023-08-08T08:30:55;100395.22;;;16.71;100.00
64933;BME280;51446;53.850;10.662;2023-08-08T08:33:20;100404.38;;;16.50;100.00
64933;BME280;51446;53.850;10.662;2023-08-08T08:35:46;100397.38;;;16.45;100.00
64933;BME280;51446;53.850;10.662;2023-08-08T08:38:11;100408.91;;;16.41;100.00
64933;BME280;51446;53.850;10.662;2023-08-08T08:40:38;100400.75;;;16.57;100.00
64933;BME280;51446;53.850;10.662;2023-08-08T08:43:05;100427.81;;;16.09;100.00
64933;BME280;51446;53.850;10.662;2023-08-08T08:45:32;100435.38;;;15.64;100.00
64933;BME280;51446;53.850;10.662;2023-08-08T08:48:00;100455.31;;;15.01;100.00
64933;BME280;51446;53.850;10.662;2023-08-08T08:50:27;100456.44;;;14.64;100.00
64933;BME280;51446;53.850;10.662;2023-08-08T08:52:54;100436.19;;;14.69;100.00
64933;BME280;51446;53.850;10.662;2023-08-08T08:55:21;100447.56;;;14.76;100.00
64933;BME280;51446;53.850;10.662;2023-08-08T08:57:46;100442.22;;;14.87;100.00
64933;BME280;51446;53.850;10.662;2023-08-08T09:00:12;100446.72;;;14.72;100.00
64933;BME280;51446;53.850;10.662;2023-08-08T09:02:38;100449.41;;;14.62;100.00
64933;BME280;51446;53.850;10.662;2023-08-08T09:05:04;100472.28;;;14.63;100.00
64933;BME280;51446;53.850;10.662;2023-08-08T09:07:31;100465.41;;;14.23;100.00
64933;BME280;51446;53.850;10.662;2023-08-08T09:09:57;100462.78;;;14.20;100.00
64933;BME280;51446;53.850;10.662;2023-08-08T09:12:22;100471.50;;;14.36;100.00
64933;BME280;51446;53.850;10.662;2023-08-08T09:14:55;100457.50;;;14.23;100.00
64933;BME280;51446;53.850;10.662;2023-08-08T09:17:21;100468.00;;;14.34;100.00
64933;BME280;51446;53.850;10.662;2023-08-08T09:19:47;100468.59;;;14.90;100.00
64933;BME280;51446;53.850;10.662;2023-08-08T09:22:13;100451.78;;;16.65;100.00
64933;BME280;51446;53.850;10.662;2023-08-08T09:24:40;100448.56;;;16.43;100.00
64933;BME280;51446;53.850;10.662;2023-08-08T09:27:09;100449.94;;;16.06;100.00
64933;BME280;51446;53.850;10.662;2023-08-08T09:29:35;100456.66;;;15.50;100.00
64933;BME280;51446;53.850;10.662;2023-08-08T09:32:05;100463.94;;;15.26;100.00
64933;BME280;51446;53.850;10.662;2023-08-08T09:34:30;100455.09;;;15.30;100.00
64933;BME280;51446;53.850;10.662;2023-08-08T09:36:57;100451.63;;;15.22;100.00
64933;BME280;51446;53.850;10.662;2023-08-08T09:39:23;100447.13;;;16.19;100.00
64933;BME280;51446;53.850;10.662;2023-08-08T09:41:49;100446.31;;;17.35;100.00
64933;BME280;51446;53.850;10.662;2023-08-08T09:44:14;100437.66;;;19.35;100.00
64933;BME280;51446;53.850;10.662;2023-08-08T09:46:41;100430.50;;;19.01;100.00
64933;BME280;51446;53.850;10.662;2023-08-08T09:49:08;100431.41;;;18.61;100.00
64933;BME280;51446;53.850;10.662;2023-08-08T09:51:38;100435.28;;;18.85;100.00
64933;BME280;51446;53.850;10.662;2023-08-08T09:54:04;100430.66;;;19.31;100.00
64933;BME280;51446;53.850;10.662;2023-08-08T09:56:33;100424.09;;;17.89;100.00
64933;BME280;51446;53.850;10.662;2023-08-08T09:58:59;100435.97;;;17.18;100.00
64933;BME280;51446;53.850;10.662;2023-08-08T10:01:26;100441.38;;;17.13;100.00
64933;BME280;51446;53.850;10.662;2023-08-08T10:03:52;100422.09;;;17.55;100.00
64933;BME280;51446;53.850;10.662;2023-08-08T10:06:18;100429.03;;;18.50;100.00
64933;BME280;51446;53.850;10.662;2023-08-08T10:08:44;100427.47;;;18.79;100.00
64933;BME280;51446;53.850;10.662;2023-08-08T10:11:10;100430.63;;;18.16;100.00
64933;BME280;51446;53.850;10.662;2023-08-08T10:13:37;100419.34;;;17.60;100.00
64933;BME280;51446;53.850;10.662;2023-08-08T10:16:07;100416.75;;;18.03;100.00
64933;BME280;51446;53.850;10.662;2023-08-08T10:18:33;100418.34;;;17.15;100.00
64933;BME280;51446;53.850;10.662;2023-08-08T10:20:59;100420.97;;;16.61;100.00
64933;BME280;51446;53.850;10.662;2023-08-08T10:23:25;100427.84;;;17.77;100.00
64933;BME280;51446;53.850;10.662;2023-08-08T10:25:52;100415.38;;;18.26;100.00
64933;BME280;51446;53.850;10.662;2023-08-08T10:28:20;100418.81;;;19.42;100.00
64933;BME280;51446;53.850;10.662;2023-08-08T10:33:26;100432.53;;;19.26;100.00
64933;BME280;51446;53.850;10.662;2023-08-08T10:35:59;100420.28;;;19.20;100.00
64933;BME280;51446;53.850;10.662;2023-08-08T10:38:27;100408.16;;;20.38;100.00
64933;BME280;51446;53.850;10.662;2023-08-08T10:41:03;100410.94;;;20.92;100.00
64933;BME280;51446;53.850;10.662;2023-08-08T10:43:30;100412.59;;;20.68;100.00
64933;BME280;51446;53.850;10.662;2023-08-08T10:46:03;100417.41;;;19.62;100.00
64933;BME280;51446;53.850;10.662;2023-08-08T10:48:28;100417.66;;;20.17;100.00
64933;BME280;51446;53.850;10.662;2023-08-08T10:50:55;100420.84;;;21.40;95.92
64933;BME280;51446;53.850;10.662;2023-08-08T10:53:28;100415.50;;;21.91;92.83
64933;BME280;51446;53.850;10.662;2023-08-08T10:56:01;100418.41;;;21.61;90.87
64933;BME280;51446;53.850;10.662;2023-08-08T10:58:40;100422.66;;;21.65;92.42
64933;BME280;51446;53.850;10.662;2023-08-08T11:01:07;100421.47;;;20.38;100.00
64933;BME280;51446;53.850;10.662;2023-08-08T11:03:38;100416.81;;;20.75;96.43
64933;BME280;51446;53.850;10.662;2023-08-08T11:06:06;100411.91;;;20.89;92.61
64933;BME280;51446;53.850;10.662;2023-08-08T11:08:34;100418.84;;;20.67;98.82
64933;BME280;51446;53.850;10.662;2023-08-08T11:11:01;100407.97;;;20.73;95.54
64933;BME280;51446;53.850;10.662;2023-08-08T11:13:28;100407.28;;;19.09;98.14
64933;BME280;51446;53.850;10.662;2023-08-08T11:15:53;100401.47;;;19.95;100.00
64933;BME280;51446;53.850;10.662;2023-08-08T11:18:19;100418.16;;;20.60;99.75
64933;BME280;51446;53.850;10.662;2023-08-08T11:20:45;100413.72;;;18.61;100.00
64933;BME280;51446;53.850;10.662;2023-08-08T11:23:10;100408.19;;;18.70;100.00
64933;BME280;51446;53.850;10.662;2023-08-08T11:25:43;100420.22;;;18.07;100.00
64933;BME280;51446;53.850;10.662;2023-08-08T11:28:10;100436.28;;;17.99;100.00
64933;BME280;51446;53.850;10.662;2023-08-08T11:30:41;100424.94;;;17.93;100.00
64933;BME280;51446;53.850;10.662;2023-08-08T11:33:07;100418.19;;;18.18;100.00
64933;BME280;51446;53.850;10.662;2023-08-08T11:35:34;100418.84;;;18.69;100.00
64933;BME280;51446;53.850;10.662;2023-08-08T11:38:00;100414.81;;;19.61;100.00
64933;BME280;51446;53.850;10.662;2023-08-08T11:40:28;100424.16;;;18.69;100.00
64933;BME280;51446;53.850;10.662;2023-08-08T11:42:55;100428.38;;;18.38;100.00
64933;BME280;51446;53.850;10.662;2023-08-08T11:45:23;100421.34;;;17.47;100.00
64933;BME280;51446;53.850;10.662;2023-08-08T11:47:54;100419.19;;;17.69;100.00
64933;BME280;51446;53.850;10.662;2023-08-08T11:50:22;100420.22;;;17.59;100.00
64933;BME280;51446;53.850;10.662;2023-08-08T11:52:54;100421.47;;;17.41;100.00
64933;BME280;51446;53.850;10.662;2023-08-08T11:55:21;100433.66;;;17.49;100.00
64933;BME280;51446;53.850;10.662;2023-08-08T11:57:54;100425.84;;;18.73;100.00
64933;BME280;51446;53.850;10.662;2023-08-08T12:00:26;100421.63;;;19.02;100.00
64933;BME280;51446;53.850;10.662;2023-08-08T12:02:52;100404.66;;;18.31;100.00
64933;BME280;51446;53.850;10.662;2023-08-08T12:05:20;100416.44;;;17.74;100.00
64933;BME280;51446;53.850;10.662;2023-08-08T12:07:48;100422.38;;;17.86;100.00
64933;BME280;51446;53.850;10.662;2023-08-08T12:10:19;100412.53;;;17.46;100.00
64933;BME280;51446;53.850;10.662;2023-08-08T12:12:46;100408.81;;;18.82;100.00
64933;BME280;51446;53.850;10.662;2023-08-08T12:15:13;100400.78;;;19.54;100.00
64933;BME280;51446;53.850;10.662;2023-08-08T12:17:42;100398.88;;;18.51;100.00
64933;BME280;51446;53.850;10.662;2023-08-08T12:20:08;100410.72;;;18.75;100.00
64933;BME280;51446;53.850;10.662;2023-08-08T12:22:35;100394.91;;;17.91;100.00
64933;BME280;51446;53.850;10.662;2023-08-08T12:25:01;100414.66;;;18.19;100.00
64933;BME280;51446;53.850;10.662;2023-08-08T12:27:26;100409.13;;;18.29;100.00